createdAt,value
2017-11-26T00:00:20.057Z,2.70
2017-11-26T00:02:46.463Z,2.70
2017-11-26T00:05:13.637Z,2.70
2017-11-26T00:07:40.882Z,2.70
2017-11-26T00:10:07.366Z,2.70
2017-11-26T00:12:34.614Z,2.70
2017-11-26T00:15:01.136Z,2.70
2017-11-26T00:17:27.624Z,2.70
2017-11-26T00:19:54.112Z,2.60
2017-11-26T00:22:21.398Z,2.60
2017-11-26T00:24:48.752Z,2.60
2017-11-26T00:27:16.688Z,2.60
2017-11-26T00:29:43.219Z,2.60
2017-11-26T00:32:10.402Z,2.70
2017-11-26T00:34:36.892Z,2.70
2017-11-26T00:37:03.370Z,2.70
2017-11-26T00:39:29.864Z,2.70
2017-11-26T00:41:57.610Z,2.70
2017-11-26T00:44:24.087Z,2.70
2017-11-26T00:46:51.047Z,2.70
2017-11-26T00:49:18.237Z,2.70
2017-11-26T00:51:45.431Z,2.70
2017-11-26T00:54:11.834Z,2.60
2017-11-26T00:56:38.291Z,2.70
2017-11-26T00:59:04.797Z,2.70
2017-11-26T01:01:31.207Z,2.70
2017-11-26T01:03:57.668Z,2.70
2017-11-26T01:06:24.078Z,2.70
2017-11-26T01:08:50.506Z,2.70
2017-11-26T01:11:16.948Z,2.70
2017-11-26T01:13:43.395Z,2.70
2017-11-26T01:16:09.828Z,2.60
2017-11-26T01:18:36.273Z,2.60
2017-11-26T01:21:02.702Z,2.60
2017-11-26T01:23:29.151Z,2.60
2017-11-26T01:25:55.600Z,2.60
2017-11-26T01:28:22.762Z,2.60
2017-11-26T01:30:49.956Z,2.60
2017-11-26T01:33:16.380Z,2.60
2017-11-26T01:35:43.611Z,2.70
2017-11-26T01:38:10.090Z,2.70
2017-11-26T01:40:36.571Z,2.70
2017-11-26T01:43:03.828Z,2.70
2017-11-26T01:45:30.299Z,2.60
2017-11-26T01:47:57.513Z,2.70
2017-11-26T01:50:24.629Z,2.60
2017-11-26T01:52:51.095Z,2.70
2017-11-26T01:55:17.578Z,2.70
2017-11-26T01:57:44.747Z,2.70
2017-11-26T02:00:11.942Z,2.70
2017-11-26T02:02:38.388Z,2.70
2017-11-26T02:05:04.865Z,2.70
2017-11-26T02:07:31.323Z,2.70
2017-11-26T02:09:57.880Z,2.70
2017-11-26T02:12:24.301Z,2.70
2017-11-26T02:14:51.508Z,2.80
2017-11-26T02:17:17.941Z,2.70
2017-11-26T02:19:44.471Z,2.80
2017-11-26T02:22:11.007Z,2.80
2017-11-26T02:24:37.532Z,2.80
2017-11-26T02:27:04.014Z,2.80
2017-11-26T02:29:31.264Z,2.80
2017-11-26T02:32:10.088Z,2.80
2017-11-26T02:34:49.321Z,2.70
2017-11-26T02:37:15.805Z,2.70
2017-11-26T02:39:42.425Z,2.70
2017-11-26T02:42:08.954Z,2.70
2017-11-26T02:44:35.476Z,2.70
2017-11-26T02:47:02.035Z,2.70
2017-11-26T02:49:28.583Z,2.70
2017-11-26T02:51:55.040Z,2.70
2017-11-26T02:54:21.549Z,2.70
2017-11-26T02:56:48.050Z,2.70
2017-11-26T02:59:14.526Z,2.70
2017-11-26T03:01:40.938Z,2.70
2017-11-26T03:04:08.132Z,2.70
2017-11-26T03:06:34.668Z,2.70
2017-11-26T03:09:01.856Z,2.60
2017-11-26T03:11:28.351Z,2.60
2017-11-26T03:13:54.804Z,2.50
2017-11-26T03:16:21.283Z,2.50
2017-11-26T03:18:47.719Z,2.50
2017-11-26T03:21:14.150Z,2.50
2017-11-26T03:23:40.681Z,2.40
2017-11-26T03:26:07.889Z,2.40
2017-11-26T03:28:34.415Z,2.30
2017-11-26T03:31:01.702Z,2.40
2017-11-26T03:33:28.464Z,2.40
2017-11-26T03:35:54.905Z,2.40
2017-11-26T03:38:22.081Z,2.40
2017-11-26T03:40:49.305Z,2.40
2017-11-26T03:43:15.762Z,2.40
2017-11-26T03:45:42.214Z,2.30
2017-11-26T03:48:08.660Z,2.30
2017-11-26T03:50:35.105Z,2.30
2017-11-26T03:53:01.530Z,2.30
2017-11-26T03:55:28.782Z,2.30
2017-11-26T03:57:55.958Z,2.20
2017-11-26T04:00:23.155Z,2.30
2017-11-26T04:02:49.654Z,2.20
2017-11-26T04:05:16.120Z,2.20
2017-11-26T04:07:42.579Z,2.20
2017-11-26T04:10:09.008Z,2.30
2017-11-26T04:12:35.519Z,2.20
2017-11-26T04:15:02.723Z,2.30
2017-11-26T04:17:29.227Z,2.20
2017-11-26T04:19:55.685Z,2.30
2017-11-26T04:22:22.141Z,2.30
2017-11-26T04:24:48.578Z,2.30
2017-11-26T04:27:15.069Z,2.30
2017-11-26T04:29:42.265Z,2.30
2017-11-26T04:32:08.728Z,2.30
2017-11-26T04:34:35.144Z,2.30
2017-11-26T04:37:01.578Z,2.30
2017-11-26T04:39:27.998Z,2.30
2017-11-26T04:41:54.452Z,2.30
2017-11-26T04:44:21.368Z,2.30
2017-11-26T04:46:47.791Z,2.30
2017-11-26T04:49:14.229Z,2.30
2017-11-26T04:51:40.677Z,2.30
2017-11-26T04:54:07.913Z,2.30
2017-11-26T04:56:34.337Z,2.30
2017-11-26T04:59:00.873Z,2.30
2017-11-26T05:01:27.414Z,2.30
2017-11-26T05:03:53.983Z,2.30
2017-11-26T05:06:20.489Z,2.30
2017-11-26T05:08:46.949Z,2.30
2017-11-26T05:11:13.428Z,2.30
2017-11-26T05:13:40.831Z,2.30
2017-11-26T05:16:07.283Z,2.30
2017-11-26T05:18:33.903Z,2.30
2017-11-26T05:21:00.338Z,2.30
2017-11-26T05:23:26.855Z,2.30
2017-11-26T05:25:54.067Z,2.30
2017-11-26T05:28:20.515Z,2.30
2017-11-26T05:30:46.965Z,2.30
2017-11-26T05:33:13.436Z,2.30
2017-11-26T05:35:39.954Z,2.20
2017-11-26T05:38:07.209Z,2.10
2017-11-26T05:40:33.739Z,2.10
2017-11-26T05:43:00.228Z,2.00
2017-11-26T05:45:27.495Z,2.00
2017-11-26T05:47:54.011Z,2.00
2017-11-26T05:50:20.519Z,1.90
2017-11-26T05:52:47.733Z,2.00
2017-11-26T05:55:14.184Z,1.90
2017-11-26T05:57:40.629Z,2.00
2017-11-26T06:00:07.274Z,2.00
2017-11-26T06:02:34.552Z,2.00
2017-11-26T06:05:01.746Z,2.00
2017-11-26T06:07:28.186Z,2.00
2017-11-26T06:09:54.612Z,2.00
2017-11-26T06:12:21.057Z,1.90
2017-11-26T06:14:47.590Z,1.80
2017-11-26T06:17:14.047Z,1.80
2017-11-26T06:19:40.502Z,1.80
2017-11-26T06:22:06.987Z,1.80
2017-11-26T06:24:33.413Z,1.80
2017-11-26T06:26:59.880Z,1.80
2017-11-26T06:29:26.368Z,1.80
2017-11-26T06:31:52.805Z,1.80
2017-11-26T06:34:19.275Z,1.80
2017-11-26T06:36:45.736Z,1.70
2017-11-26T06:39:12.967Z,1.70
2017-11-26T06:41:39.469Z,1.70
2017-11-26T06:44:06.739Z,1.70
2017-11-26T06:46:33.487Z,1.70
2017-11-26T06:48:59.927Z,1.70
2017-11-26T06:51:26.459Z,1.60
2017-11-26T06:53:52.931Z,1.70
2017-11-26T06:56:19.409Z,1.70
2017-11-26T06:58:45.890Z,1.70
2017-11-26T07:01:14.668Z,1.70
2017-11-26T07:03:41.190Z,1.70
2017-11-26T07:06:07.684Z,1.70
2017-11-26T07:08:35.018Z,1.70
2017-11-26T07:11:01.545Z,1.70
2017-11-26T07:13:28.766Z,1.70
2017-11-26T07:15:55.313Z,1.70
2017-11-26T07:18:21.782Z,1.80
2017-11-26T07:20:48.403Z,1.80
2017-11-26T07:23:16.071Z,1.90
2017-11-26T07:25:43.985Z,1.90
2017-11-26T07:28:11.174Z,1.90
2017-11-26T07:30:37.614Z,1.90
2017-11-26T07:33:04.791Z,2.00
2017-11-26T07:35:31.209Z,2.00
2017-11-26T07:37:57.658Z,2.10
2017-11-26T07:40:24.253Z,2.30
2017-11-26T07:42:50.800Z,2.60
2017-11-26T07:45:17.247Z,3.90
2017-11-26T07:47:43.689Z,5.60
2017-11-26T07:50:10.180Z,7.50
2017-11-26T07:52:37.450Z,9.20
2017-11-26T07:55:04.684Z,8.40
2017-11-26T07:57:31.172Z,8.40
2017-11-26T07:59:58.423Z,6.60
2017-11-26T08:02:25.120Z,6.60
2017-11-26T08:04:52.369Z,5.30
2017-11-26T08:07:19.673Z,4.90
2017-11-26T08:09:46.118Z,4.80
2017-11-26T08:12:13.300Z,4.20
2017-11-26T08:14:41.412Z,4.00
2017-11-26T08:17:07.873Z,4.00
2017-11-26T08:19:34.308Z,3.90
2017-11-26T08:22:00.722Z,3.70
2017-11-26T08:24:27.160Z,3.70
2017-11-26T08:26:53.892Z,3.60
2017-11-26T08:29:20.642Z,3.60
2017-11-26T08:31:47.914Z,3.50
2017-11-26T08:34:14.577Z,3.50
2017-11-26T08:36:41.761Z,3.40
2017-11-26T08:39:08.823Z,3.30
2017-11-26T08:41:35.311Z,3.30
2017-11-26T08:44:01.881Z,3.50
2017-11-26T08:46:28.600Z,4.50
2017-11-26T08:48:55.260Z,6.40
2017-11-26T08:51:21.780Z,7.60
2017-11-26T08:53:48.477Z,8.00
2017-11-26T08:56:14.964Z,7.60
2017-11-26T08:58:41.444Z,7.10
2017-11-26T09:01:08.006Z,6.70
2017-11-26T09:03:34.487Z,6.70
2017-11-26T09:06:02.408Z,6.00
2017-11-26T09:08:31.649Z,6.00
2017-11-26T09:10:58.146Z,5.60
2017-11-26T09:13:24.629Z,5.20
2017-11-26T09:15:51.132Z,5.00
2017-11-26T09:18:17.629Z,5.00
2017-11-26T09:20:45.017Z,6.40
2017-11-26T09:23:12.493Z,6.50
2017-11-26T09:25:39.731Z,6.40
2017-11-26T09:28:06.339Z,6.40
2017-11-26T09:30:33.469Z,6.20
2017-11-26T09:32:59.956Z,5.90
2017-11-26T09:35:27.212Z,5.10
2017-11-26T09:37:53.891Z,5.10
2017-11-26T09:40:20.559Z,4.80
2017-11-26T09:42:47.523Z,4.50
2017-11-26T09:45:15.111Z,4.40
2017-11-26T09:47:41.765Z,4.30
2017-11-26T09:50:08.631Z,4.20
2017-11-26T09:52:35.288Z,4.30
2017-11-26T09:55:02.480Z,4.10
2017-11-26T09:57:28.934Z,4.10
2017-11-26T09:59:55.575Z,4.10
2017-11-26T10:02:27.102Z,4.10
2017-11-26T10:04:53.713Z,4.20
2017-11-26T10:07:20.863Z,4.10
2017-11-26T10:13:05.972Z,4.00
2017-11-26T10:15:32.443Z,4.10
2017-11-26T10:17:58.963Z,4.20
2017-11-26T10:20:26.133Z,4.30
2017-11-26T10:23:11.206Z,4.30
2017-11-26T10:25:38.363Z,4.30
2017-11-26T10:28:05.589Z,4.30
2017-11-26T10:30:42.886Z,4.30
2017-11-26T10:33:09.389Z,4.30
2017-11-26T10:35:37.241Z,4.20
2017-11-26T10:38:03.789Z,4.20
2017-11-26T10:43:38.984Z,4.20
2017-11-26T10:46:05.777Z,4.20
2017-11-26T10:48:32.371Z,4.10
2017-11-26T10:50:58.932Z,4.10
2017-11-26T10:53:31.209Z,4.10
2017-11-26T10:55:57.830Z,4.10
2017-11-26T10:58:26.127Z,4.20
2017-11-26T11:00:52.720Z,4.20
2017-11-26T11:03:20.369Z,4.20
2017-11-26T11:05:47.684Z,4.20
2017-11-26T11:08:14.417Z,4.10
2017-11-26T11:22:20.577Z,4.40
2017-11-26T11:24:47.105Z,4.30
2017-11-26T11:27:13.722Z,4.20
2017-11-26T11:44:26.106Z,3.80
2017-11-26T11:46:52.648Z,3.70
2017-11-26T11:49:19.902Z,3.50
2017-11-26T11:57:47.271Z,3.60
2017-11-26T12:00:13.963Z,3.60
2017-11-26T12:02:40.704Z,3.60
2017-11-26T12:05:08.103Z,3.70
2017-11-26T12:07:34.867Z,3.70
2017-11-26T12:10:01.462Z,3.60
2017-11-26T12:12:28.803Z,3.60
2017-11-26T12:14:55.873Z,3.60
2017-11-26T12:20:30.614Z,3.60
2017-11-26T12:22:57.156Z,3.70
2017-11-26T12:25:24.176Z,3.70
2017-11-26T12:27:51.414Z,3.70
2017-11-26T12:30:19.008Z,3.70
2017-11-26T12:32:47.518Z,3.70
2017-11-26T12:35:14.218Z,3.70
2017-11-26T12:37:41.228Z,3.60
2017-11-26T12:43:21.189Z,3.70
2017-11-26T12:45:48.665Z,3.80
2017-11-26T12:48:16.201Z,3.90
2017-11-26T12:51:03.155Z,3.90
2017-11-26T12:53:46.389Z,3.80
2017-11-26T12:56:13.966Z,3.80
2017-11-26T12:58:41.345Z,3.70
2017-11-26T13:01:08.723Z,3.70
2017-11-26T13:06:40.218Z,3.60
2017-11-26T13:09:07.977Z,3.60
2017-11-26T13:11:34.548Z,3.70
2017-11-26T13:14:01.113Z,3.70
2017-11-26T13:16:27.856Z,3.80
2017-11-26T13:18:54.478Z,3.80
2017-11-26T13:21:26.884Z,3.80
2017-11-26T13:23:53.438Z,3.90
2017-11-26T13:26:19.986Z,3.90
2017-11-26T13:28:47.522Z,4.00
2017-11-26T13:37:01.241Z,3.80
2017-11-26T13:39:28.992Z,3.80
2017-11-26T13:41:55.591Z,3.70
2017-11-26T13:44:29.853Z,3.60
2017-11-26T13:46:57.537Z,3.60
2017-11-26T13:49:24.173Z,3.60
2017-11-26T13:51:50.960Z,3.50
2017-11-26T13:54:17.586Z,3.50
2017-11-26T13:56:44.691Z,3.40
2017-11-26T14:08:09.619Z,3.10
2017-11-26T14:10:36.316Z,3.10
2017-11-26T14:13:04.066Z,3.00
2017-11-26T14:15:30.728Z,2.90
2017-11-26T14:17:57.358Z,2.90
2017-11-26T14:20:25.947Z,2.80
2017-11-26T14:22:55.899Z,2.80
2017-11-26T14:25:22.794Z,2.80
2017-11-26T14:28:01.314Z,2.70
2017-11-26T14:30:27.887Z,2.70
2017-11-26T14:32:54.823Z,2.70
2017-11-26T14:35:22.612Z,2.70
2017-11-26T14:38:08.617Z,2.70
2017-11-26T14:40:35.587Z,2.60
2017-11-26T14:43:02.864Z,2.60
2017-11-26T14:45:29.521Z,2.70
2017-11-26T14:51:15.821Z,2.60
2017-11-26T14:53:43.428Z,2.50
2017-11-26T14:56:10.124Z,2.50
2017-11-26T14:58:37.116Z,2.50
2017-11-26T15:07:08.704Z,2.40
2017-11-26T15:09:35.708Z,2.40
2017-11-26T15:12:02.639Z,2.40
2017-11-26T15:14:29.711Z,2.30
2017-11-26T15:17:04.962Z,2.30
2017-11-26T15:19:31.796Z,2.30
2017-11-26T15:21:59.101Z,2.30
2017-11-26T15:24:25.685Z,2.30
2017-11-26T15:26:55.268Z,2.30
2017-11-26T15:29:22.153Z,2.30
2017-11-26T15:31:50.244Z,2.20
2017-11-26T15:34:19.157Z,2.20
2017-11-26T15:36:53.496Z,2.20
2017-11-26T15:39:21.465Z,2.20
2017-11-26T15:41:50.144Z,2.20
2017-11-26T15:44:18.078Z,2.20
2017-11-26T15:55:29.809Z,2.20
2017-11-26T15:57:58.070Z,2.20
2017-11-26T16:00:25.788Z,2.30
2017-11-26T16:02:53.892Z,2.30
2017-11-26T16:08:32.920Z,2.20
2017-11-26T16:11:00.602Z,2.20
2017-11-26T16:13:28.999Z,2.20
2017-11-26T16:15:55.968Z,2.30
2017-11-26T16:21:16.290Z,2.30
2017-11-26T16:23:43.262Z,2.30
2017-11-26T16:26:11.007Z,2.30
2017-11-26T16:28:38.841Z,2.30
2017-11-26T16:31:05.524Z,2.30
2017-11-26T16:33:32.974Z,2.30
2017-11-26T16:35:59.936Z,2.30
2017-11-26T16:38:26.805Z,2.30
2017-11-26T16:40:53.499Z,2.30
2017-11-26T16:43:21.764Z,2.30
2017-11-26T16:45:49.036Z,2.20
2017-11-26T16:48:16.722Z,2.20
2017-11-26T16:50:44.299Z,2.30
2017-11-26T16:53:11.538Z,2.30
2017-11-26T16:55:38.746Z,2.30
2017-11-26T16:58:06.122Z,2.30
2017-11-26T17:00:35.341Z,2.30
2017-11-26T17:03:02.817Z,2.30
2017-11-26T17:05:29.785Z,2.30
2017-11-26T17:07:56.958Z,2.30
2017-11-26T17:10:23.842Z,2.40
2017-11-26T17:12:50.689Z,2.40
2017-11-26T17:15:17.963Z,2.30
2017-11-26T17:17:45.955Z,2.30
2017-11-26T17:20:13.540Z,2.30
2017-11-26T17:22:40.700Z,2.30
2017-11-26T17:25:07.488Z,2.40
2017-11-26T17:27:34.333Z,2.40
2017-11-26T17:30:01.204Z,2.40
2017-11-26T17:32:28.680Z,2.40
2017-11-26T17:34:55.545Z,2.40
2017-11-26T17:37:23.038Z,2.40
2017-11-26T17:39:49.786Z,2.40
2017-11-26T17:42:17.061Z,2.40
2017-11-26T17:44:44.340Z,2.40
2017-11-26T17:47:11.308Z,2.40
2017-11-26T17:49:38.289Z,2.30
2017-11-26T17:52:04.910Z,2.40
2017-11-26T17:54:33.022Z,2.30
2017-11-26T17:56:59.682Z,2.30
2017-11-26T17:59:26.546Z,2.40
2017-11-26T18:01:53.414Z,2.30
2017-11-26T18:04:20.075Z,2.30
2017-11-26T18:06:46.839Z,2.30
2017-11-26T18:09:13.323Z,2.30
2017-11-26T18:11:40.060Z,2.30
2017-11-26T18:14:06.718Z,2.30
2017-11-26T18:16:33.480Z,2.30
2017-11-26T18:19:00.142Z,2.30
2017-11-26T18:21:30.549Z,2.20
2017-11-26T18:23:57.964Z,2.20
2017-11-26T18:26:25.538Z,2.20
2017-11-26T18:28:52.083Z,2.20
2017-11-26T18:31:19.684Z,2.00
2017-11-26T18:33:46.550Z,2.10
2017-11-26T18:36:14.027Z,2.00
2017-11-26T18:38:42.634Z,1.90
2017-11-26T18:41:09.703Z,1.90
2017-11-26T18:43:36.768Z,1.90
2017-11-26T18:46:03.331Z,1.90
2017-11-26T18:48:30.204Z,1.90
2017-11-26T18:50:57.706Z,1.90
2017-11-26T18:53:24.746Z,1.90
2017-11-26T18:55:51.820Z,1.90
2017-11-26T18:58:19.501Z,2.00
2017-11-26T19:00:47.008Z,1.90
2017-11-26T19:03:14.151Z,2.00
2017-11-26T19:05:41.508Z,2.10
2017-11-26T19:08:09.516Z,2.10
2017-11-26T19:10:37.404Z,2.10
2017-11-26T19:13:04.166Z,2.10
2017-11-26T19:15:30.937Z,2.20
2017-11-26T19:17:58.205Z,2.20
2017-11-26T19:20:25.786Z,2.20
2017-11-26T19:22:52.755Z,2.20
2017-11-26T19:25:20.129Z,2.20
2017-11-26T19:27:48.118Z,2.20
2017-11-26T19:30:15.340Z,2.20
2017-11-26T19:32:43.488Z,2.20
2017-11-26T19:35:10.659Z,2.30
2017-11-26T19:37:38.343Z,2.30
2017-11-26T19:40:06.479Z,2.30
2017-11-26T19:42:38.604Z,2.20
2017-11-26T19:45:06.915Z,2.20
2017-11-26T19:47:34.977Z,2.20
2017-11-26T19:50:03.406Z,2.20
2017-11-26T19:52:32.024Z,2.20
2017-11-26T19:54:59.496Z,2.30
2017-11-26T19:57:28.081Z,2.30
2017-11-26T19:59:57.928Z,2.30
2017-11-26T20:02:26.967Z,2.30
2017-11-26T20:04:55.695Z,2.30
2017-11-26T20:07:25.632Z,2.30
2017-11-26T20:09:57.567Z,2.30
2017-11-26T20:12:25.168Z,2.30
2017-11-26T20:14:53.334Z,2.30
2017-11-26T20:17:21.538Z,2.30
2017-11-26T20:19:49.334Z,2.30
2017-11-26T20:22:17.002Z,2.30
2017-11-26T20:24:45.996Z,2.40
2017-11-26T20:27:14.519Z,2.40
2017-11-26T20:29:42.715Z,2.40
2017-11-26T20:32:10.546Z,2.40
2017-11-26T20:34:37.972Z,2.40
2017-11-26T20:37:04.735Z,2.40
2017-11-26T20:39:32.533Z,2.40
2017-11-26T20:41:59.795Z,2.40
2017-11-26T20:44:27.372Z,2.40
2017-11-26T20:46:55.981Z,2.30
2017-11-26T20:49:23.539Z,2.30
2017-11-26T20:51:51.000Z,2.30
2017-11-26T20:54:18.314Z,2.30
2017-11-26T20:56:45.691Z,2.40
2017-11-26T20:59:13.498Z,2.40
2017-11-26T21:01:41.243Z,2.40
2017-11-26T21:04:10.379Z,2.40
2017-11-26T21:06:38.472Z,2.40
2017-11-26T21:09:05.745Z,2.40
2017-11-26T21:11:33.429Z,2.50
2017-11-26T21:13:59.998Z,2.40
2017-11-26T21:16:26.852Z,2.50
2017-11-26T21:18:54.127Z,2.40
2017-11-26T21:21:21.095Z,2.40
2017-11-26T21:23:47.655Z,2.40
2017-11-26T21:26:14.519Z,2.40
2017-11-26T21:28:41.180Z,2.40
2017-11-26T21:31:08.965Z,2.40
2017-11-26T21:33:35.833Z,2.40
2017-11-26T21:36:03.313Z,2.40
2017-11-26T21:38:30.491Z,2.40
2017-11-26T21:40:58.064Z,2.40
2017-11-26T21:43:24.726Z,2.40
2017-11-26T21:45:51.384Z,2.40
2017-11-26T21:48:18.046Z,2.40
2017-11-26T21:50:44.614Z,2.30
2017-11-26T21:53:11.988Z,2.30
2017-11-26T21:55:38.644Z,2.30
2017-11-26T21:58:05.916Z,2.40
2017-11-26T22:00:32.474Z,2.40
2017-11-26T22:02:58.956Z,2.40
2017-11-26T22:05:25.504Z,2.40
2017-11-26T22:07:52.047Z,2.30
2017-11-26T22:10:18.535Z,2.30
2017-11-26T22:12:45.164Z,2.40
2017-11-26T22:15:11.647Z,2.40
2017-11-26T22:17:38.689Z,2.40
2017-11-26T22:20:05.260Z,2.30
2017-11-26T22:22:32.016Z,2.30
2017-11-26T22:24:58.571Z,2.30
2017-11-26T22:27:26.048Z,2.30
2017-11-26T22:29:52.533Z,2.30
2017-11-26T22:32:19.187Z,2.30
2017-11-26T22:34:45.726Z,2.30
2017-11-26T22:37:12.218Z,2.30
2017-11-26T22:39:38.748Z,2.30
2017-11-26T22:42:05.389Z,2.20
2017-11-26T22:44:32.066Z,2.20
2017-11-26T22:46:58.620Z,2.20
2017-11-26T22:49:25.777Z,2.20
2017-11-26T22:51:53.066Z,2.20
2017-11-26T22:54:19.726Z,2.20
2017-11-26T22:56:46.285Z,2.30
2017-11-26T22:59:13.152Z,2.30
2017-11-26T23:01:39.811Z,2.30
2017-11-26T23:04:06.369Z,2.30
2017-11-26T23:06:32.927Z,2.30
2017-11-26T23:08:59.514Z,2.30
2017-11-26T23:11:26.048Z,2.30
2017-11-26T23:13:52.604Z,2.30
2017-11-26T23:16:19.265Z,2.30
2017-11-26T23:18:45.827Z,2.20
2017-11-26T23:21:12.904Z,2.20
2017-11-26T23:23:40.377Z,2.20
2017-11-26T23:26:07.647Z,2.20
2017-11-26T23:28:34.204Z,2.20
2017-11-26T23:31:00.871Z,2.20
2017-11-26T23:33:27.558Z,2.20
2017-11-26T23:35:57.766Z,2.20
2017-11-26T23:38:24.327Z,2.30
2017-11-26T23:40:50.885Z,2.30
2017-11-26T23:43:17.546Z,2.30
2017-11-26T23:45:44.205Z,2.30
2017-11-26T23:48:10.868Z,2.30
2017-11-26T23:50:37.424Z,2.30
2017-11-26T23:53:04.801Z,2.30
2017-11-26T23:55:32.178Z,2.30
2017-11-26T23:57:58.735Z,2.40
